createdAt,value
2023-01-27T00:00:30.829Z,19.90
2023-01-27T00:01:30.823Z,19.30
2023-01-27T00:02:30.832Z,21.20
2023-01-27T00:03:30.877Z,19.50
2023-01-27T00:04:30.785Z,16.80
2023-01-27T00:05:30.777Z,14.70
2023-01-27T00:06:30.761Z,18.80
2023-01-27T00:07:30.765Z,18.80
2023-01-27T00:08:30.742Z,19.60
2023-01-27T00:09:30.734Z,18.30
2023-01-27T00:10:30.719Z,19.10
2023-01-27T00:11:30.713Z,20.00
2023-01-27T00:12:30.705Z,19.50
2023-01-27T00:13:30.689Z,20.50
2023-01-27T00:14:30.680Z,19.40
2023-01-27T00:15:30.680Z,20.60
2023-01-27T00:16:30.661Z,20.20
2023-01-27T00:17:30.686Z,22.80
2023-01-27T00:18:30.640Z,18.90
2023-01-27T00:19:30.630Z,21.10
2023-01-27T00:20:30.609Z,21.20
2023-01-27T00:21:30.605Z,18.10
2023-01-27T00:22:30.598Z,19.90
2023-01-27T00:23:30.583Z,17.90
2023-01-27T00:24:30.575Z,18.30
2023-01-27T00:25:30.560Z,18.80
2023-01-27T00:26:30.544Z,20.20
2023-01-27T00:27:30.551Z,22.00
2023-01-27T00:28:30.527Z,20.20
2023-01-27T00:29:30.519Z,21.00
2023-01-27T00:30:30.554Z,20.80
2023-01-27T00:31:30.563Z,19.50
2023-01-27T00:32:30.496Z,19.50
2023-01-27T00:33:30.536Z,21.80
2023-01-27T00:34:30.457Z,25.30
2023-01-27T00:35:30.464Z,20.40
2023-01-27T00:36:30.437Z,19.60
2023-01-27T00:37:30.428Z,19.00
2023-01-27T00:38:30.426Z,22.30
2023-01-27T00:39:30.413Z,22.60
2023-01-27T00:40:30.393Z,20.10
2023-01-27T00:41:30.386Z,19.80
2023-01-27T00:42:30.370Z,20.10
2023-01-27T00:43:30.373Z,20.70
2023-01-27T00:44:30.349Z,19.90
2023-01-27T00:45:30.344Z,19.90
2023-01-27T00:46:30.411Z,20.90
2023-01-27T00:47:30.323Z,20.10
2023-01-27T00:48:30.315Z,19.30
2023-01-27T00:49:30.305Z,21.80
2023-01-27T00:50:30.294Z,21.50
2023-01-27T00:51:30.276Z,17.50
2023-01-27T00:52:30.261Z,21.70
2023-01-27T00:53:30.261Z,20.90
2023-01-27T00:54:30.244Z,20.00
2023-01-27T00:55:30.228Z,21.30
2023-01-27T00:56:30.225Z,18.90
2023-01-27T00:57:30.209Z,21.60
2023-01-27T00:58:30.213Z,19.60
2023-01-27T00:59:30.187Z,19.00
2023-01-27T01:00:30.180Z,22.70
2023-01-27T01:01:30.203Z,20.60
2023-01-27T01:02:30.216Z,19.90
2023-01-27T01:03:30.154Z,19.30
2023-01-27T01:04:30.127Z,23.30
2023-01-27T01:05:30.131Z,20.20
2023-01-27T01:06:30.125Z,19.00
2023-01-27T01:07:30.103Z,22.70
2023-01-27T01:08:30.097Z,22.10
2023-01-27T01:09:30.082Z,20.00
2023-01-27T01:10:30.073Z,21.90
2023-01-27T01:11:30.093Z,26.80
2023-01-27T01:12:30.048Z,22.10
2023-01-27T01:13:30.085Z,21.60
2023-01-27T01:14:30.079Z,24.20
2023-01-27T01:15:30.023Z,21.40
2023-01-27T01:16:30.056Z,21.20
2023-01-27T01:17:29.993Z,19.40
2023-01-27T01:18:29.990Z,19.10
2023-01-27T01:19:29.977Z,22.30
2023-01-27T01:20:29.955Z,22.00
2023-01-27T01:21:29.977Z,22.40
2023-01-27T01:22:29.937Z,19.30
2023-01-27T01:23:29.952Z,23.80
2023-01-27T01:24:29.941Z,20.20
2023-01-27T01:25:29.909Z,19.90
2023-01-27T01:26:29.892Z,21.00
2023-01-27T01:27:29.886Z,21.70
2023-01-27T01:28:29.884Z,22.70
2023-01-27T01:29:29.862Z,23.70
2023-01-27T01:30:29.900Z,20.80
2023-01-27T01:31:29.870Z,20.10
2023-01-27T01:32:29.828Z,21.80
2023-01-27T01:33:30.075Z,24.00
2023-01-27T01:34:29.806Z,19.60
2023-01-27T01:35:29.798Z,18.80
2023-01-27T01:36:29.783Z,22.40
2023-01-27T01:37:29.775Z,19.40
2023-01-27T01:38:29.769Z,20.80
2023-01-27T01:39:29.765Z,23.80
2023-01-27T01:40:29.738Z,19.70
2023-01-27T01:41:29.731Z,23.20
2023-01-27T01:42:29.718Z,18.40
2023-01-27T01:43:29.730Z,18.80
2023-01-27T01:44:29.693Z,21.40
2023-01-27T01:45:29.693Z,24.30
2023-01-27T01:46:29.681Z,20.30
2023-01-27T01:47:29.669Z,19.50
2023-01-27T01:48:31.788Z,20.00
2023-01-27T01:49:29.645Z,24.00
2023-01-27T01:50:29.646Z,18.20
2023-01-27T01:51:29.620Z,22.40
2023-01-27T01:52:29.613Z,18.80
2023-01-27T01:53:29.618Z,23.30
2023-01-27T01:54:29.585Z,19.70
2023-01-27T01:55:29.580Z,20.10
2023-01-27T01:56:29.564Z,20.60
2023-01-27T01:57:29.559Z,18.40
2023-01-27T01:58:29.562Z,16.40
2023-01-27T01:59:29.535Z,21.20
2023-01-27T02:00:29.520Z,21.50
2023-01-27T02:01:29.538Z,20.00
2023-01-27T02:02:29.532Z,21.90
2023-01-27T02:03:29.498Z,22.00
2023-01-27T02:04:29.484Z,19.90
2023-01-27T02:05:29.503Z,20.50
2023-01-27T02:06:31.024Z,21.30
2023-01-27T02:07:29.454Z,21.40
2023-01-27T02:08:29.431Z,19.90
2023-01-27T02:09:29.451Z,20.20
2023-01-27T02:10:29.410Z,22.20
2023-01-27T02:11:29.404Z,22.40
2023-01-27T02:12:29.392Z,22.00
2023-01-27T02:13:29.392Z,17.00
2023-01-27T02:14:29.382Z,22.90
2023-01-27T02:15:29.361Z,20.40
2023-01-27T02:16:29.363Z,21.30
2023-01-27T02:17:29.347Z,20.20
2023-01-27T02:18:29.344Z,20.20
2023-01-27T02:19:29.340Z,20.30
2023-01-27T02:20:29.315Z,20.30
2023-01-27T02:21:29.298Z,20.30
2023-01-27T02:22:29.280Z,20.00
2023-01-27T02:23:29.274Z,22.00
2023-01-27T02:24:29.267Z,20.70
2023-01-27T02:25:29.250Z,19.30
2023-01-27T02:26:29.245Z,21.20
2023-01-27T02:27:29.230Z,19.00
2023-01-27T02:28:29.218Z,20.50
2023-01-27T02:29:29.217Z,19.70
2023-01-27T02:30:29.231Z,19.90
2023-01-27T02:31:29.286Z,18.50
2023-01-27T02:32:29.170Z,17.90
2023-01-27T02:33:29.165Z,19.70
2023-01-27T02:34:29.159Z,20.90
2023-01-27T02:35:29.144Z,18.50
2023-01-27T02:36:29.128Z,19.20
2023-01-27T02:37:29.120Z,20.50
2023-01-27T02:38:29.106Z,18.40
2023-01-27T02:39:29.108Z,19.80
2023-01-27T02:40:29.091Z,20.20
2023-01-27T02:41:29.081Z,18.50
2023-01-27T02:42:29.065Z,22.30
2023-01-27T02:43:29.057Z,19.10
2023-01-27T02:44:29.049Z,19.10
2023-01-27T02:45:29.036Z,20.00
2023-01-27T02:46:29.055Z,18.50
2023-01-27T02:47:29.014Z,18.70
2023-01-27T02:48:28.999Z,20.00
2023-01-27T02:49:29.106Z,20.00
2023-01-27T02:50:28.975Z,21.40
2023-01-27T02:51:28.972Z,17.70
2023-01-27T02:52:28.960Z,18.90
2023-01-27T02:53:28.951Z,18.90
2023-01-27T02:54:28.952Z,16.40
2023-01-27T02:55:28.932Z,20.00
2023-01-27T02:56:28.917Z,22.50
2023-01-27T02:57:28.906Z,22.60
2023-01-27T02:58:28.901Z,21.50
2023-01-27T02:59:28.892Z,20.10
2023-01-27T03:00:28.871Z,21.90
2023-01-27T03:01:28.867Z,20.10
2023-01-27T03:02:28.932Z,21.90
2023-01-27T03:03:28.859Z,20.50
2023-01-27T03:04:28.838Z,23.30
2023-01-27T03:05:28.819Z,20.10
2023-01-27T03:06:28.814Z,22.20
2023-01-27T03:07:28.798Z,22.10
2023-01-27T03:08:28.809Z,20.80
2023-01-27T03:09:28.789Z,24.00
2023-01-27T03:10:28.760Z,24.50
2023-01-27T03:11:28.753Z,21.00
2023-01-27T03:12:28.744Z,20.30
2023-01-27T03:13:28.731Z,23.00
2023-01-27T03:14:28.723Z,22.30
2023-01-27T03:15:28.728Z,20.60
2023-01-27T03:16:28.697Z,18.60
2023-01-27T03:17:28.685Z,23.80
2023-01-27T03:18:28.674Z,19.10
2023-01-27T03:19:28.673Z,20.60
2023-01-27T03:20:28.648Z,19.60
2023-01-27T03:21:28.640Z,19.30
2023-01-27T03:22:28.643Z,18.60
2023-01-27T03:23:28.623Z,22.10
2023-01-27T03:24:28.701Z,18.00
2023-01-27T03:25:28.597Z,18.80
2023-01-27T03:26:28.582Z,18.30
2023-01-27T03:27:28.576Z,21.20
2023-01-27T03:28:28.561Z,19.50
2023-01-27T03:29:28.566Z,18.50
2023-01-27T03:30:28.546Z,18.00
2023-01-27T03:31:28.630Z,20.30
2023-01-27T03:32:28.527Z,19.10
2023-01-27T03:33:28.513Z,20.10
2023-01-27T03:34:28.509Z,18.20
2023-01-27T03:35:28.489Z,16.60
2023-01-27T03:36:28.478Z,17.70
2023-01-27T03:37:28.477Z,19.00
2023-01-27T03:38:28.465Z,18.10
2023-01-27T03:39:28.470Z,15.80
2023-01-27T03:40:28.497Z,18.80
2023-01-27T03:41:28.715Z,18.90
2023-01-27T03:42:28.426Z,16.70
2023-01-27T03:43:28.415Z,17.50
2023-01-27T03:44:28.415Z,16.70
2023-01-27T03:45:28.399Z,17.90
2023-01-27T03:46:28.422Z,17.90
2023-01-27T03:47:28.370Z,17.60
2023-01-27T03:48:28.372Z,17.50
2023-01-27T03:49:28.360Z,16.40
2023-01-27T03:50:28.333Z,16.10
2023-01-27T03:51:28.328Z,16.70
2023-01-27T03:52:28.309Z,20.40
2023-01-27T03:53:28.306Z,17.00
2023-01-27T03:54:28.333Z,17.30
2023-01-27T03:55:28.281Z,16.40
2023-01-27T03:56:28.268Z,17.30
2023-01-27T03:57:28.259Z,15.00
2023-01-27T03:58:28.254Z,16.30
2023-01-27T03:59:28.249Z,16.00
2023-01-27T04:00:28.235Z,15.80
2023-01-27T04:01:28.257Z,15.10
2023-01-27T04:02:28.260Z,16.60
2023-01-27T04:03:28.194Z,15.10
2023-01-27T04:04:28.196Z,15.50
2023-01-27T04:05:28.186Z,16.90
2023-01-27T04:06:28.179Z,16.60
2023-01-27T04:07:28.147Z,15.40
2023-01-27T04:08:28.144Z,15.60
2023-01-27T04:09:28.150Z,16.80
2023-01-27T04:10:28.118Z,14.70
2023-01-27T04:11:30.251Z,15.60
2023-01-27T04:12:28.106Z,15.20
2023-01-27T04:13:28.086Z,15.60
2023-01-27T04:14:28.242Z,14.90
2023-01-27T04:15:28.062Z,13.20
2023-01-27T04:16:28.056Z,14.70
2023-01-27T04:17:28.042Z,15.10
2023-01-27T04:18:28.033Z,13.10
2023-01-27T04:19:28.030Z,14.90
2023-01-27T04:20:28.015Z,13.70
2023-01-27T04:21:28.001Z,12.80
2023-01-27T04:22:27.999Z,12.80
2023-01-27T04:23:27.976Z,14.00
2023-01-27T04:24:28.071Z,16.10
2023-01-27T04:25:27.953Z,14.70
2023-01-27T04:26:27.945Z,11.90
2023-01-27T04:27:27.930Z,14.40
2023-01-27T04:28:42.020Z,13.10
2023-01-27T04:29:27.924Z,11.70
2023-01-27T04:30:27.900Z,14.40
2023-01-27T04:31:27.900Z,15.20
2023-01-27T04:32:27.886Z,13.40
2023-01-27T04:33:27.866Z,13.40
2023-01-27T04:34:27.874Z,14.50
2023-01-27T04:35:38.300Z,11.10
2023-01-27T04:36:27.850Z,13.60
2023-01-27T04:37:27.824Z,14.60
2023-01-27T04:38:27.817Z,13.90
2023-01-27T04:39:27.814Z,13.20
2023-01-27T04:40:27.797Z,11.20
2023-01-27T04:41:27.778Z,11.40
2023-01-27T04:42:27.782Z,12.40
2023-01-27T04:43:27.764Z,11.70
2023-01-27T04:44:27.766Z,13.40
2023-01-27T04:45:27.798Z,11.10
2023-01-27T04:46:27.730Z,10.90
2023-01-27T04:47:27.720Z,11.80
2023-01-27T04:48:27.709Z,14.50
2023-01-27T04:49:27.761Z,11.90
2023-01-27T04:50:27.687Z,10.90
2023-01-27T04:51:27.670Z,13.10
2023-01-27T04:52:27.666Z,10.80
2023-01-27T04:53:27.657Z,13.00
2023-01-27T04:54:27.662Z,11.10
2023-01-27T04:55:27.632Z,12.60
2023-01-27T04:56:27.627Z,11.90
2023-01-27T04:57:27.622Z,9.90
2023-01-27T04:58:27.601Z,10.40
2023-01-27T04:59:27.625Z,10.00
2023-01-27T05:00:27.580Z,10.30
2023-01-27T05:01:27.599Z,9.80
2023-01-27T05:02:27.560Z,11.60
2023-01-27T05:03:27.546Z,11.20
2023-01-27T05:04:27.562Z,9.40
2023-01-27T05:05:27.524Z,12.60
2023-01-27T05:06:27.526Z,10.30
2023-01-27T05:07:27.532Z,10.20
2023-01-27T05:08:27.490Z,9.50
2023-01-27T05:09:27.496Z,8.30
2023-01-27T05:10:27.490Z,9.40
2023-01-27T05:11:27.469Z,9.50
2023-01-27T05:12:27.473Z,9.20
2023-01-27T05:13:27.441Z,9.30
2023-01-27T05:14:27.431Z,11.80
2023-01-27T05:15:27.444Z,8.90
2023-01-27T05:16:27.583Z,9.60
2023-01-27T05:17:27.401Z,9.90
2023-01-27T05:18:27.395Z,8.90
2023-01-27T05:19:27.380Z,9.20
2023-01-27T05:20:27.370Z,10.50
2023-01-27T05:21:27.357Z,8.90
2023-01-27T05:22:27.339Z,9.10
2023-01-27T05:23:27.331Z,9.30
2023-01-27T05:24:27.393Z,8.60
2023-01-27T05:25:27.328Z,8.60
2023-01-27T05:26:27.294Z,8.30
2023-01-27T05:27:27.288Z,10.90
2023-01-27T05:28:28.401Z,9.60
2023-01-27T05:29:27.266Z,8.30
2023-01-27T05:30:27.263Z,8.30
2023-01-27T05:31:27.448Z,10.00
2023-01-27T05:32:27.229Z,9.70
2023-01-27T05:33:27.282Z,8.40
2023-01-27T05:34:27.216Z,8.00
2023-01-27T05:35:27.213Z,8.60
2023-01-27T05:36:27.189Z,7.30
2023-01-27T05:37:27.194Z,8.10
2023-01-27T05:38:27.176Z,8.70
2023-01-27T05:39:27.161Z,6.60
2023-01-27T05:40:27.174Z,10.10
2023-01-27T05:41:27.145Z,9.90
2023-01-27T05:42:27.125Z,7.70
2023-01-27T05:43:27.130Z,9.10
2023-01-27T05:44:27.102Z,9.70
2023-01-27T05:45:27.114Z,8.00
2023-01-27T05:46:27.151Z,8.60
2023-01-27T05:47:27.072Z,10.30
2023-01-27T05:48:27.065Z,8.00
2023-01-27T05:49:27.055Z,7.30
2023-01-27T05:50:27.048Z,7.60
2023-01-27T05:51:27.033Z,8.60
2023-01-27T05:52:27.017Z,8.80
2023-01-27T05:53:27.016Z,9.00
2023-01-27T05:54:27.008Z,7.50
2023-01-27T05:55:27.005Z,8.70
2023-01-27T05:56:26.980Z,9.60
2023-01-27T05:57:26.988Z,8.60
2023-01-27T05:58:26.961Z,7.10
2023-01-27T05:59:26.951Z,8.30
2023-01-27T06:00:26.938Z,8.30
2023-01-27T06:01:26.928Z,8.50
2023-01-27T06:02:26.912Z,7.50
2023-01-27T06:03:26.914Z,9.00
2023-01-27T06:04:26.893Z,8.40
2023-01-27T06:05:26.889Z,9.10
2023-01-27T06:06:26.867Z,8.40
2023-01-27T06:07:26.872Z,8.00
2023-01-27T06:08:26.849Z,8.80
2023-01-27T06:09:26.836Z,6.90
2023-01-27T06:10:26.898Z,7.20
2023-01-27T06:11:26.829Z,7.60
2023-01-27T06:12:26.802Z,6.80
2023-01-27T06:13:26.795Z,10.00
2023-01-27T06:14:26.779Z,7.40
2023-01-27T06:15:26.786Z,7.50
2023-01-27T06:16:26.815Z,7.40
2023-01-27T06:17:26.754Z,8.20
2023-01-27T06:18:26.737Z,7.90
2023-01-27T06:19:26.736Z,7.30
2023-01-27T06:20:26.738Z,8.10
2023-01-27T06:21:26.712Z,7.90
2023-01-27T06:22:26.707Z,9.60
2023-01-27T06:23:26.686Z,6.80
2023-01-27T06:24:26.755Z,7.20
2023-01-27T06:25:26.682Z,9.60
2023-01-27T06:26:26.650Z,8.40
2023-01-27T06:27:26.647Z,8.30
2023-01-27T06:28:29.560Z,7.40
2023-01-27T06:29:26.623Z,7.70
2023-01-27T06:30:26.629Z,8.20
2023-01-27T06:31:26.655Z,9.90
2023-01-27T06:32:26.591Z,7.80
2023-01-27T06:33:26.586Z,9.10
2023-01-27T06:34:26.568Z,9.00
2023-01-27T06:35:26.559Z,8.20
2023-01-27T06:36:26.562Z,8.10
2023-01-27T06:37:26.538Z,6.80
2023-01-27T06:38:26.526Z,10.20
2023-01-27T06:39:26.521Z,8.20
2023-01-27T06:40:26.527Z,7.20
2023-01-27T06:41:26.510Z,7.90
2023-01-27T06:42:26.492Z,8.50
2023-01-27T06:43:26.475Z,8.40
2023-01-27T06:44:26.458Z,8.60
2023-01-27T06:45:26.459Z,8.50
2023-01-27T06:46:26.501Z,8.70
2023-01-27T06:47:26.438Z,9.10
2023-01-27T06:48:26.428Z,8.30
2023-01-27T06:49:26.412Z,8.80
2023-01-27T06:50:26.403Z,8.40
2023-01-27T06:51:26.401Z,7.20
2023-01-27T06:52:26.378Z,8.20
2023-01-27T06:53:26.372Z,9.20
2023-01-27T06:54:26.354Z,8.90
2023-01-27T06:55:26.346Z,9.80
2023-01-27T06:56:26.342Z,7.90
2023-01-27T06:57:26.325Z,8.10
2023-01-27T06:58:26.320Z,9.30
2023-01-27T06:59:27.044Z,7.60
2023-01-27T07:00:26.301Z,8.60
2023-01-27T07:01:26.305Z,7.20
2023-01-27T07:02:26.275Z,9.20
2023-01-27T07:03:26.261Z,9.50
2023-01-27T07:04:26.247Z,8.50
2023-01-27T07:05:26.236Z,10.10
2023-01-27T07:06:26.239Z,9.60
2023-01-27T07:07:26.211Z,9.60
2023-01-27T07:08:26.214Z,10.70
2023-01-27T07:09:26.197Z,9.90
2023-01-27T07:10:26.192Z,8.60
2023-01-27T07:11:26.180Z,8.90
2023-01-27T07:12:26.161Z,8.40
2023-01-27T07:13:26.145Z,9.20
2023-01-27T07:14:26.143Z,9.20
2023-01-27T07:15:26.126Z,9.00
2023-01-27T07:16:26.195Z,8.90
2023-01-27T07:17:26.105Z,10.40
2023-01-27T07:18:26.108Z,10.70
2023-01-27T07:19:26.091Z,9.80
2023-01-27T07:20:26.077Z,9.10
2023-01-27T07:21:26.079Z,11.50
2023-01-27T07:22:26.063Z,9.50
2023-01-27T07:23:26.050Z,9.70
2023-01-27T07:24:26.138Z,11.80
2023-01-27T07:25:26.034Z,9.20
2023-01-27T07:26:26.045Z,11.50
2023-01-27T07:27:26.026Z,10.20
2023-01-27T07:28:25.998Z,9.40
2023-01-27T07:29:25.999Z,9.40
2023-01-27T07:30:25.990Z,9.80
2023-01-27T07:31:26.141Z,10.60
2023-01-27T07:32:28.155Z,10.10
2023-01-27T07:33:25.947Z,10.60
2023-01-27T07:34:25.938Z,10.10
2023-01-27T07:35:25.943Z,10.50
2023-01-27T07:36:25.911Z,11.50
2023-01-27T07:37:25.910Z,10.40
2023-01-27T07:38:25.885Z,10.10
2023-01-27T07:39:25.873Z,9.70
2023-01-27T07:40:25.885Z,11.30
2023-01-27T07:41:25.851Z,9.80
2023-01-27T07:42:25.868Z,9.70
2023-01-27T07:43:25.842Z,10.40
2023-01-27T07:44:25.819Z,9.20
2023-01-27T07:45:25.858Z,9.90
2023-01-27T07:46:25.814Z,9.70
2023-01-27T07:47:26.065Z,12.50
2023-01-27T07:48:25.782Z,9.30
2023-01-27T07:49:27.431Z,10.40
2023-01-27T07:50:25.799Z,10.40
2023-01-27T07:51:25.774Z,10.70
2023-01-27T07:52:25.777Z,9.80
2023-01-27T07:53:25.726Z,11.50
2023-01-27T07:54:25.732Z,10.40
2023-01-27T07:55:25.700Z,10.60
2023-01-27T07:56:25.703Z,9.30
2023-01-27T07:57:25.699Z,10.50
2023-01-27T07:58:25.689Z,10.80
2023-01-27T07:59:25.669Z,10.00
2023-01-27T08:00:25.657Z,10.20
2023-01-27T08:01:25.654Z,10.00
2023-01-27T08:02:25.650Z,7.40
2023-01-27T08:03:25.677Z,12.50
2023-01-27T08:04:25.624Z,10.80
2023-01-27T08:05:25.601Z,11.20
2023-01-27T08:06:25.584Z,10.90
2023-01-27T08:07:26.070Z,11.10
2023-01-27T08:08:25.556Z,11.90
2023-01-27T08:09:25.542Z,10.30
2023-01-27T08:10:25.538Z,10.50
2023-01-27T08:11:25.550Z,9.30
2023-01-27T08:12:25.548Z,10.00
2023-01-27T08:13:25.593Z,10.50
2023-01-27T08:14:25.525Z,9.30
2023-01-27T08:15:25.477Z,11.50
2023-01-27T08:16:25.484Z,10.90
2023-01-27T08:17:25.470Z,10.50
2023-01-27T08:18:25.450Z,10.30
2023-01-27T08:19:25.440Z,10.90
2023-01-27T08:20:25.453Z,11.10
2023-01-27T08:21:25.437Z,12.30
2023-01-27T08:22:25.417Z,9.50
2023-01-27T08:23:25.392Z,10.50
2023-01-27T08:24:25.450Z,10.80
2023-01-27T08:25:25.376Z,10.50
2023-01-27T08:26:25.368Z,9.60
2023-01-27T08:27:25.370Z,8.90
2023-01-27T08:28:25.353Z,10.30
2023-01-27T08:29:25.326Z,9.40
2023-01-27T08:30:25.407Z,10.50
2023-01-27T08:31:25.325Z,13.30
2023-01-27T08:32:25.315Z,9.00
2023-01-27T08:33:25.292Z,8.00
2023-01-27T08:34:25.275Z,8.40
2023-01-27T08:35:25.253Z,8.80
2023-01-27T08:36:25.265Z,10.50
2023-01-27T08:37:25.301Z,8.40
2023-01-27T08:38:25.246Z,9.10
2023-01-27T08:39:25.232Z,10.60
2023-01-27T08:40:25.229Z,11.30
2023-01-27T08:41:25.209Z,8.30
2023-01-27T08:42:25.191Z,10.20
2023-01-27T08:43:25.188Z,8.50
2023-01-27T08:44:25.185Z,9.40
2023-01-27T08:45:25.202Z,10.00
2023-01-27T08:46:25.151Z,8.80
2023-01-27T08:47:25.143Z,8.30
2023-01-27T08:48:25.137Z,9.80
2023-01-27T08:49:25.108Z,8.70
2023-01-27T08:50:25.166Z,9.50
2023-01-27T08:51:25.121Z,10.10
2023-01-27T08:52:25.080Z,9.90
2023-01-27T08:53:25.078Z,9.70
2023-01-27T08:54:25.055Z,9.10
2023-01-27T08:55:25.051Z,8.60
2023-01-27T08:56:25.078Z,9.30
2023-01-27T08:57:25.022Z,9.30
2023-01-27T08:58:25.020Z,8.70
2023-01-27T08:59:25.046Z,10.40
2023-01-27T09:00:25.001Z,8.50
2023-01-27T09:01:25.010Z,7.90
2023-01-27T09:02:24.966Z,9.00
2023-01-27T09:03:24.990Z,7.90
2023-01-27T09:04:24.973Z,9.30
2023-01-27T09:05:24.932Z,9.00
2023-01-27T09:06:24.920Z,7.10
2023-01-27T09:07:24.922Z,12.70
2023-01-27T09:08:24.905Z,6.40
2023-01-27T09:09:24.886Z,7.80
2023-01-27T09:10:25.292Z,7.90
2023-01-27T09:11:24.866Z,8.70
2023-01-27T09:12:24.857Z,9.10
2023-01-27T09:13:24.877Z,8.90
2023-01-27T09:14:24.838Z,9.10
2023-01-27T09:15:24.824Z,9.00
2023-01-27T09:16:24.837Z,10.00
2023-01-27T09:17:24.820Z,6.70
2023-01-27T09:18:24.806Z,7.50
2023-01-27T09:19:24.777Z,8.60
2023-01-27T09:20:24.781Z,10.40
2023-01-27T09:21:24.756Z,8.60
2023-01-27T09:22:24.748Z,8.40
2023-01-27T09:23:24.749Z,8.00
2023-01-27T09:24:24.756Z,9.00
2023-01-27T09:25:24.715Z,7.90
2023-01-27T09:26:24.713Z,9.20
2023-01-27T09:27:37.260Z,7.40
2023-01-27T09:28:24.693Z,9.00
2023-01-27T09:29:24.682Z,9.30
2023-01-27T09:30:24.708Z,8.50
2023-01-27T09:31:24.850Z,9.40
2023-01-27T09:32:24.643Z,8.40
2023-01-27T09:33:24.662Z,10.00
2023-01-27T09:34:24.637Z,8.20
2023-01-27T09:35:24.610Z,7.20
2023-01-27T09:36:24.624Z,7.70
2023-01-27T09:37:26.411Z,8.00
2023-01-27T09:38:24.578Z,8.00
2023-01-27T09:39:24.587Z,6.80
2023-01-27T09:40:24.584Z,7.70
2023-01-27T09:41:24.539Z,7.70
2023-01-27T09:42:24.522Z,7.10
2023-01-27T09:43:24.527Z,7.50
2023-01-27T09:44:24.516Z,6.80
2023-01-27T09:45:24.502Z,6.00
2023-01-27T09:46:24.597Z,7.70
2023-01-27T09:47:24.470Z,5.20
2023-01-27T09:48:24.467Z,5.50
2023-01-27T09:49:24.464Z,4.60
2023-01-27T09:50:24.456Z,5.00
2023-01-27T09:51:24.431Z,4.60
2023-01-27T09:52:24.428Z,5.20
2023-01-27T09:53:24.421Z,4.80
2023-01-27T09:54:24.416Z,4.80
2023-01-27T09:55:24.392Z,5.40
2023-01-27T09:56:24.369Z,4.20
2023-01-27T09:57:24.376Z,5.20
2023-01-27T09:58:24.865Z,3.80
2023-01-27T09:59:24.363Z,3.80
2023-01-27T10:00:24.350Z,4.30
2023-01-27T10:01:24.374Z,3.30
2023-01-27T10:02:24.311Z,4.90
2023-01-27T10:03:24.318Z,2.90
2023-01-27T10:04:24.322Z,3.10
2023-01-27T10:05:24.273Z,3.50
2023-01-27T10:06:24.264Z,2.20
2023-01-27T10:07:24.262Z,3.40
2023-01-27T10:08:24.245Z,3.30
2023-01-27T10:09:24.238Z,3.20
2023-01-27T10:10:24.245Z,2.80
2023-01-27T10:11:24.208Z,2.70
2023-01-27T10:12:24.197Z,3.30
2023-01-27T10:13:24.189Z,4.00
2023-01-27T10:14:24.188Z,2.40
2023-01-27T10:15:24.161Z,3.70
2023-01-27T10:16:24.233Z,2.70
2023-01-27T10:17:24.157Z,2.40
2023-01-27T10:18:24.146Z,2.90
2023-01-27T10:19:24.141Z,3.00
2023-01-27T10:20:24.116Z,3.50
2023-01-27T10:21:24.114Z,2.80
2023-01-27T10:22:24.096Z,2.70
2023-01-27T10:23:24.077Z,2.90
2023-01-27T10:24:24.218Z,3.70
2023-01-27T10:25:24.086Z,3.10
2023-01-27T10:26:24.063Z,3.20
2023-01-27T10:27:24.034Z,2.90
2023-01-27T10:28:24.032Z,2.90
2023-01-27T10:29:24.010Z,3.10
2023-01-27T10:30:24.046Z,2.60
2023-01-27T10:31:24.009Z,2.60
2023-01-27T10:32:23.976Z,2.90
2023-01-27T10:33:23.965Z,3.10
2023-01-27T10:34:23.966Z,3.20
2023-01-27T10:35:23.963Z,2.60
2023-01-27T10:36:23.933Z,2.50
2023-01-27T10:37:23.928Z,3.00
2023-01-27T10:38:23.910Z,3.00
2023-01-27T10:39:23.892Z,3.20
2023-01-27T10:40:23.903Z,2.90
2023-01-27T10:41:23.883Z,2.90
2023-01-27T10:42:23.867Z,2.60
2023-01-27T10:43:23.855Z,4.00
2023-01-27T10:44:23.855Z,3.00
2023-01-27T10:45:23.957Z,3.60
2023-01-27T10:46:23.892Z,2.70
2023-01-27T10:47:23.814Z,3.20
2023-01-27T10:48:23.809Z,3.20
2023-01-27T10:49:23.787Z,2.80
2023-01-27T10:50:23.798Z,4.30
2023-01-27T10:51:23.886Z,3.30
2023-01-27T10:52:23.764Z,3.90
2023-01-27T10:53:23.738Z,3.50
2023-01-27T10:54:23.771Z,2.90
2023-01-27T10:55:23.765Z,3.00
2023-01-27T10:56:23.726Z,3.20
2023-01-27T10:57:23.695Z,3.20
2023-01-27T10:58:23.697Z,3.20
2023-01-27T10:59:23.679Z,2.90
2023-01-27T11:01:24.573Z,2.60
2023-01-27T11:02:23.644Z,2.30
2023-01-27T11:03:23.632Z,2.20
2023-01-27T11:04:23.662Z,2.30
2023-01-27T11:05:23.626Z,3.20
2023-01-27T11:06:23.611Z,2.30
2023-01-27T11:07:23.591Z,2.50
2023-01-27T11:08:23.589Z,3.00
2023-01-27T11:09:24.053Z,2.20
2023-01-27T11:10:23.573Z,2.40
2023-01-27T11:11:23.542Z,2.30
2023-01-27T11:12:23.542Z,2.80
2023-01-27T11:13:23.526Z,2.60
2023-01-27T11:14:23.531Z,4.20
2023-01-27T11:15:23.528Z,2.50
2023-01-27T11:16:23.522Z,3.00
2023-01-27T11:17:23.477Z,2.80
2023-01-27T11:18:23.471Z,3.20
2023-01-27T11:19:23.464Z,4.70
2023-01-27T11:20:23.483Z,4.40
2023-01-27T11:21:23.439Z,3.10
2023-01-27T11:22:23.454Z,2.60
2023-01-27T11:23:23.415Z,3.20
2023-01-27T11:24:23.453Z,3.30
2023-01-27T11:25:23.443Z,2.60
2023-01-27T11:26:23.889Z,3.50
2023-01-27T11:27:23.377Z,2.90
2023-01-27T11:28:23.372Z,2.90
2023-01-27T11:29:23.372Z,2.90
2023-01-27T11:30:23.505Z,4.40
2023-01-27T11:31:23.475Z,3.10
2023-01-27T11:32:23.332Z,2.90
2023-01-27T11:33:23.310Z,2.60
2023-01-27T11:34:23.297Z,2.80
2023-01-27T11:35:23.289Z,3.50
2023-01-27T11:36:23.328Z,3.00
2023-01-27T11:37:23.294Z,2.70
2023-01-27T11:38:23.253Z,2.40
2023-01-27T11:39:23.239Z,2.50
2023-01-27T11:40:23.273Z,3.50
2023-01-27T11:41:23.215Z,2.60
2023-01-27T11:42:23.206Z,4.90
2023-01-27T11:43:23.193Z,4.40
2023-01-27T11:44:23.188Z,3.00
2023-01-27T11:45:23.183Z,2.60
2023-01-27T11:46:23.167Z,2.40
2023-01-27T11:47:23.150Z,3.10
2023-01-27T11:48:23.636Z,3.10
2023-01-27T11:49:23.127Z,3.60
2023-01-27T11:50:23.129Z,2.50
2023-01-27T11:51:23.132Z,2.80
2023-01-27T11:52:23.101Z,2.60
2023-01-27T11:53:23.088Z,2.90
2023-01-27T11:54:23.075Z,2.50
2023-01-27T11:55:23.081Z,3.90
2023-01-27T11:56:23.056Z,2.80
2023-01-27T11:57:23.051Z,2.70
2023-01-27T11:58:23.041Z,3.60
2023-01-27T11:59:23.023Z,3.50
2023-01-27T12:00:23.022Z,4.80
2023-01-27T12:01:23.006Z,2.60
2023-01-27T12:02:22.991Z,2.70
2023-01-27T12:03:23.037Z,3.40
2023-01-27T12:04:23.010Z,3.70
2023-01-27T12:05:22.952Z,2.70
2023-01-27T12:06:22.955Z,3.20
2023-01-27T12:07:22.933Z,2.90
2023-01-27T12:08:22.923Z,2.90
2023-01-27T12:09:22.908Z,2.30
2023-01-27T12:10:22.909Z,2.80
2023-01-27T12:11:22.910Z,3.00
2023-01-27T12:12:22.878Z,2.10
2023-01-27T12:13:22.864Z,2.80
2023-01-27T12:14:22.867Z,1.80
2023-01-27T12:15:22.843Z,2.10
2023-01-27T12:16:22.922Z,2.00
2023-01-27T12:17:22.825Z,2.80
2023-01-27T12:18:22.816Z,1.60
2023-01-27T12:19:22.801Z,2.10
2023-01-27T12:20:22.799Z,1.90
2023-01-27T12:21:22.792Z,1.90
2023-01-27T12:22:22.780Z,2.10
2023-01-27T12:23:22.774Z,2.60
2023-01-27T12:24:22.809Z,2.20
2023-01-27T12:25:22.735Z,1.90
2023-01-27T12:26:22.771Z,2.50
2023-01-27T12:27:22.804Z,1.80
2023-01-27T12:28:22.748Z,2.00
2023-01-27T12:29:22.693Z,1.60
2023-01-27T12:30:22.694Z,1.90
2023-01-27T12:31:22.865Z,4.40
2023-01-27T12:32:22.665Z,1.60
2023-01-27T12:33:22.652Z,1.70
2023-01-27T12:34:22.642Z,3.20
2023-01-27T12:35:22.622Z,1.60
2023-01-27T12:36:22.626Z,1.50
2023-01-27T12:37:22.612Z,1.50
2023-01-27T12:38:22.609Z,1.50
2023-01-27T12:39:22.589Z,2.10
2023-01-27T12:40:22.576Z,1.40
2023-01-27T12:41:22.577Z,1.70
2023-01-27T12:42:22.553Z,1.40
2023-01-27T12:43:22.541Z,1.40
2023-01-27T12:44:22.534Z,1.90
2023-01-27T12:45:22.527Z,1.80
2023-01-27T12:46:22.599Z,1.90
2023-01-27T12:47:22.499Z,3.10
2023-01-27T12:48:22.492Z,1.70
2023-01-27T12:49:22.476Z,1.70
2023-01-27T12:50:22.502Z,2.40
2023-01-27T12:51:22.464Z,1.60
2023-01-27T12:52:22.446Z,1.70
2023-01-27T12:53:22.435Z,3.20
2023-01-27T12:54:22.419Z,2.10
2023-01-27T12:55:22.421Z,2.00
2023-01-27T12:56:22.418Z,1.70
2023-01-27T12:57:22.394Z,1.90
2023-01-27T12:58:22.378Z,2.40
2023-01-27T12:59:22.368Z,2.00
2023-01-27T13:00:22.359Z,2.00
2023-01-27T13:01:22.355Z,2.50
2023-01-27T13:02:22.359Z,1.80
2023-01-27T13:03:22.444Z,1.80
2023-01-27T13:04:22.311Z,2.50
2023-01-27T13:05:22.314Z,1.80
2023-01-27T13:06:22.911Z,2.60